YSWK weather

South West Rocks Airport
South West Rocks, New South Wales, Australia

Public forecast

Using degrees Celsius for public forecast. Weather courtesy of forecast.io.

METAR (pilot weather report)

Report is more than 6 hours old.

Closest report is Port Macquarie Airport, 31.8 nm (59.0 km) SSW. Retrieved 2019/02/13 12:09 UTC (3 days ago):

YPMQ 131209Z AUTO 17009KT 9000 // SCT025 BKN031 OVC037 21/20 Q1011

TAF (pilot weather forecast)

Closest forecast is Taree Airport, 63.6 nm (117.8 km) SSW. Retrieved 2019/02/16 19:03 UTC (18 minutes ago):

TAF YTRE 161720Z 1619/1708 VRB03KT 9999 SCT030 FM162300 03010KT 9999 FEW050 FM170300 07014KT CAVOK